Mc Kellar Sipes Regional Airport
KMKL : now visible

Airfield :











YOU CAN JOIN US ON...

 
LOGIN :

Register | Disclaimer

   EN    FR    IT 

 









Legend :    VFR   Marginal VFR   IFR   Intensive IFR   Very Intensive IFR
Visi :
Ceiling :
>= 8 km
>= 3000ft
5 to 8 km
1000 to 3000 ft
1500m to 5 km
500 to 1000 ft
800 to 1500m
200 to 500 ft
< 800m
< 200 ft
Symbols :   Thunderstorms  Fog  Heavy snow  Heavy precipitations  Wind > 20 kt






- Airport Elevation : 434 ft
- IATA code : MKL


KMKL - Mc Kellar Sipes Regional

CURRENT METAR :
  • 280953Z AUTO 23005KT 10SM OVC080 04/M02 A3011 RMK AO2 SLP196 T00441017

EXPIRED METARs :
  • 280853Z AUTO 24008KT 10SM OVC070 06/M02 A3013 RMK AO2 SLP202 T00561022 58014
  • 280753Z AUTO 22009KT 10SM BKN075 OVC090 05/M03 A3014 RMK AO2 SLP207 T00501028

TAF KMKL
Valid from the 28 at 06:00 until the 29 at 06:00 UTC


280540Z 2806/2906 25007KT P6SM BKN090
FM280900 24007KT P6SM VCSH OVC045
FM281100 27006KT P6SM VCSH OVC030
TEMPO 2812/2815 -RA BKN015
FM281600 28010KT P6SM FEW090
FM281900 28012G18KT P6SM BKN100
FM290000 27006KT P6SM VCSH OVC050



MET'MAP, your aeronautical weather chart ! - Copyright ORBIFLY December 2007 - Disclaimer

ORBIFLY MET'MAP TEAM :

Programming & Development : Alexandra Zaïnal
Concept & original design : Baudouin d'Aumeries
Assistance for programming : Marc-Olivier Méhu
Technical & hardware support : Manuel Goepfert

Contact : metmap@orbifly.com




SOURCES & CREDITS :

   NOAA       Earth
Advisory